< Typhoon 199108 1991 Season Typhoon 199110 >
Typhoon 199109 (CAITLIN)
General InformationTrack Information on Google MapsDetailed Wind InformationList of All Images || Disaster Info.ResourceGoogle EarthGE AnimationAtom FeedGeoJSON
Detalied Best Track (Time Zone = UTC)
Year Month Day Hour Lat. Long. Pressure (hPa) Wind (kt) Class Image Chart
1991 7 21 18 12.0 138.5 1006 0 2 Image Chart
1991 7 22 00 11.9 138.0 1004 0 2 Image Chart
1991 7 22 06 12.0 137.4 1004 0 2 Image Chart
1991 7 22 12 12.3 136.5 1004 0 2 Image Chart
1991 7 22 18 12.7 136.0 1004 0 2 Image Chart
1991 7 23 00 13.0 135.5 1002 0 2 Image Chart
1991 7 23 06 13.3 134.7 1002 0 2 Image Chart
1991 7 23 12 13.6 133.7 1002 0 2 Image Chart
1991 7 23 18 13.8 132.9 1000 0 2 Image Chart
1991 7 24 00 14.3 132.0 996 45 3 Image Chart
1991 7 24 06 15.1 131.4 994 45 3 Image Chart
1991 7 24 12 16.0 131.0 990 45 3 Image Chart
1991 7 24 18 16.9 130.5 985 50 4 Image Chart
1991 7 25 00 17.8 130.1 980 55 4 Image Chart
1991 7 25 06 18.6 129.7 980 55 4 Image Chart
1991 7 25 12 19.5 129.0 975 60 4 Image Chart
1991 7 25 18 20.3 128.5 970 65 5 Image Chart
1991 7 26 00 21.2 127.9 965 70 5 Image Chart
1991 7 26 03 21.7 127.7 965 70 5 Image Chart
1991 7 26 06 22.3 127.4 965 70 5 Image Chart
1991 7 26 09 22.8 127.2 965 70 5 Image Chart
1991 7 26 12 23.2 127.0 965 75 5 Image Chart
1991 7 26 15 23.4 126.8 960 75 5 Image Chart
1991 7 26 18 23.7 126.7 960 75 5 Image Chart
1991 7 26 21 24.1 126.5 955 75 5 Image Chart
1991 7 27 00 24.4 126.3 955 75 5 Image Chart
1991 7 27 03 24.7 126.3 950 75 5 Image Chart
1991 7 27 06 25.1 126.4 950 75 5 Image Chart
1991 7 27 09 25.6 126.5 945 75 5 Image Chart
1991 7 27 12 26.1 126.6 940 80 5 Image Chart
1991 7 27 15 26.6 126.7 940 80 5 Image Chart
1991 7 27 18 27.2 126.8 940 80 5 Image Chart
1991 7 27 21 27.8 126.9 940 80 5 Image Chart
1991 7 28 00 28.4 126.9 940 80 5 Image Chart
1991 7 28 03 28.8 126.9 940 80 5 Image Chart
1991 7 28 06 29.3 127.0 940 80 5 Image Chart
1991 7 28 09 29.9 127.2 940 80 5 Image Chart
1991 7 28 12 30.5 127.3 940 80 5 Image Chart
1991 7 28 15 31.1 127.3 940 80 5 Image Chart
1991 7 28 18 31.8 127.3 940 80 5 Image Chart
1991 7 28 21 32.4 127.5 945 80 5 Image Chart
1991 7 29 00 33.0 128.0 950 75 5 Image Chart
1991 7 29 03 33.6 128.5 950 75 5 Image Chart
1991 7 29 06 34.3 129.1 955 70 5 Image Chart
1991 7 29 09 35.1 129.9 960 65 5 Image Chart
1991 7 29 12 35.9 130.6 965 65 5 Image Chart
1991 7 29 15 36.8 131.2 965 65 5 Image Chart
1991 7 29 18 37.6 131.7 970 60 4 Image Chart
1991 7 29 21 38.4 132.4 975 60 4 Image Chart
1991 7 30 00 39.5 133.5 980 55 4 Image Chart
1991 7 30 03 40.4 134.4 980 55 4 Image Chart
1991 7 30 06 41.3 135.2 985 50 4 Image Chart
1991 7 30 09 42.1 136.1 985 50 4 Image Chart
1991 7 30 12 43.0 137.0 992 0 6 Image Chart
Japan Meteorological Agency Best Track Data | Correction Date : 1992-01-04
< Typhoon 199108 1991 Season Typhoon 199110 >

Help